Time;durP1;ratioP1;P1;durP2;ratioP2;P2;SDS_P1;SDS_P2;PMS_P1;PMS_P2;Temp;Humidity;BMP_temperature;BMP_pressure;BME280_temperature;BME280_humidity;BME280_pressure;Samples;Min_cycle;Max_cycle;Signal;HPM_P1;HPM_P2
2021/09/27 00:03:55;;;;;;;5.18;4.45;;;;;;;;;;10420872;28;20037;-82
2021/09/27 00:08:55;;;;;;;7.97;4.70;;;;;;;;;;10419917;28;20124;-82
2021/09/27 00:14:00;;;;;;;10.37;4.83;;;;;;;;;;10420452;28;20034;-82
2021/09/27 00:19:00;;;;;;;6.75;4.55;;;;;;;;;;10419084;28;20021;-82
2021/09/27 00:24:02;;;;;;;5.93;4.47;;;;;;;;;;10420115;28;20029;-82
2021/09/27 00:29:04;;;;;;;5.68;4.30;;;;;;;;;;10419615;28;20040;-82
2021/09/27 00:34:05;;;;;;;5.60;4.50;;;;;;;;;;10419880;28;20091;-82
2021/09/27 00:39:06;;;;;;;9.88;4.85;;;;;;;;;;10419603;28;20056;-82
2021/09/27 00:44:06;;;;;;;5.63;4.28;;;;;;;;;;10418714;28;20482;-83
2021/09/27 00:49:07;;;;;;;7.35;4.82;;;;;;;;;;10419003;28;20033;-83
2021/09/27 00:54:20;;;;;;;7.17;4.47;;;;;;;;;;10419066;28;20040;-83
2021/09/27 00:59:23;;;;;;;7.43;4.15;;;;;;;;;;10416259;28;20435;-83
2021/09/27 01:04:24;;;;;;;7.35;4.63;;;;;;;;;;10417914;28;20379;-82
2021/09/27 01:09:56;;;;;;;10.20;4.05;;;;;;;;;;10418413;28;20034;-82
2021/09/27 01:15:22;;;;;;;5.40;4.25;;;;;;;;;;10405697;28;20036;-82
2021/09/27 01:20:32;;;;;;;4.97;4.40;;;;;;;;;;10407947;28;20095;-82
2021/09/27 01:25:57;;;;;;;8.50;4.85;;;;;;;;;;10432997;28;20060;-82
2021/09/27 01:31:24;;;;;;;6.38;4.78;;;;;;;;;;10417843;28;20112;-82
2021/09/27 01:36:37;;;;;;;5.75;5.10;;;;;;;;;;10417195;28;20034;-82
2021/09/27 01:41:54;;;;;;;6.38;4.93;;;;;;;;;;10415146;28;20075;-83
2021/09/27 01:46:58;;;;;;;7.35;5.15;;;;;;;;;;10414880;28;20127;-82
2021/09/27 01:52:07;;;;;;;5.28;4.68;;;;;;;;;;10417693;28;20034;-82
2021/09/27 01:57:16;;;;;;;9.43;4.68;;;;;;;;;;10414579;28;20052;-82
2021/09/27 02:02:28;;;;;;;7.13;5.07;;;;;;;;;;10430617;28;20025;-83
2021/09/27 02:07:31;;;;;;;5.60;4.80;;;;;;;;;;10431656;28;20041;-82
2021/09/27 02:12:35;;;;;;;7.63;5.43;;;;;;;;;;10416083;28;20044;-83
2021/09/27 02:17:40;;;;;;;6.03;4.90;;;;;;;;;;10413926;28;20463;-82
2021/09/27 02:22:52;;;;;;;6.45;5.03;;;;;;;;;;10415758;28;20116;-82
2021/09/27 02:27:53;;;;;;;6.35;4.97;;;;;;;;;;10431533;28;20029;-82
2021/09/27 02:33:11;;;;;;;8.43;4.85;;;;;;;;;;10415259;28;20383;-82
2021/09/27 02:38:16;;;;;;;4.72;3.67;;;;;;;;;;10414306;28;20452;-82
2021/09/27 02:43:17;;;;;;;5.75;4.28;;;;;;;;;;10415367;28;20041;-82
2021/09/27 02:48:32;;;;;;;5.25;4.75;;;;;;;;;;10430467;28;20033;-82
2021/09/27 02:53:33;;;;;;;5.10;4.55;;;;;;;;;;10429674;28;20044;-83
2021/09/27 02:58:39;;;;;;;6.13;4.53;;;;;;;;;;10415161;28;20395;-82
2021/09/27 03:03:52;;;;;;;6.68;4.78;;;;;;;;;;10414405;28;20034;-82
2021/09/27 03:09:10;;;;;;;4.63;4.03;;;;;;;;;;10413414;28;20038;-82
2021/09/27 03:14:39;;;;;;;7.32;4.18;;;;;;;;;;10438972;28;20055;-82
2021/09/27 03:20:05;;;;;;;4.88;4.13;;;;;;;;;;10423067;28;20040;-82
2021/09/27 03:25:25;;;;;;;4.93;4.35;;;;;;;;;;10422491;28;20037;-82
2021/09/27 03:30:44;;;;;;;7.25;4.53;;;;;;;;;;10421070;28;20475;-82
2021/09/27 03:36:08;;;;;;;5.53;4.07;;;;;;;;;;10421833;28;20025;-83
2021/09/27 03:41:20;;;;;;;5.80;3.90;;;;;;;;;;10418664;28;20108;-82
2021/09/27 03:46:45;;;;;;;4.70;4.20;;;;;;;;;;10420284;28;20049;-83
2021/09/27 03:52:16;;;;;;;6.32;4.25;;;;;;;;;;10417661;28;20053;-82
2021/09/27 03:57:25;;;;;;;4.10;3.80;;;;;;;;;;10419523;28;20034;-82
2021/09/27 04:02:36;;;;;;;6.07;3.70;;;;;;;;;;10435847;28;20021;-82
2021/09/27 04:07:54;;;;;;;6.15;3.90;;;;;;;;;;10419000;28;20044;-83
2021/09/27 04:13:19;;;;;;;4.63;4.07;;;;;;;;;;10420088;28;20033;-82
2021/09/27 04:18:41;;;;;;;4.53;3.50;;;;;;;;;;10419862;28;20446;-83
2021/09/27 04:24:03;;;;;;;5.47;3.63;;;;;;;;;;10434978;28;20025;-83
2021/09/27 04:29:41;;;;;;;3.92;3.40;;;;;;;;;;10420059;28;20025;-83
2021/09/27 04:35:25;;;;;;;4.00;3.50;;;;;;;;;;10419603;28;20044;-83
2021/09/27 04:40:59;;;;;;;4.53;3.67;;;;;;;;;;10377348;28;20423;-83
2021/09/27 04:46:07;;;;;;;4.10;3.70;;;;;;;;;;10418871;28;20050;-83
2021/09/27 04:51:35;;;;;;;4.10;3.15;;;;;;;;;;10418156;28;20034;-83
2021/09/27 04:56:41;;;;;;;5.40;3.50;;;;;;;;;;10418303;28;20048;-83
2021/09/27 05:02:03;;;;;;;6.85;3.40;;;;;;;;;;10417061;28;20426;-84
2021/09/27 05:07:25;;;;;;;3.30;3.00;;;;;;;;;;10413876;28;20455;-85
2021/09/27 05:12:44;;;;;;;3.28;2.97;;;;;;;;;;10411668;28;20066;-86
2021/09/27 05:18:02;;;;;;;4.20;3.30;;;;;;;;;;10404742;28;20156;-89
2021/09/27 05:23:14;;;;;;;5.43;3.20;;;;;;;;;;10406417;28;20021;-85
2021/09/27 05:28:34;;;;;;;3.45;3.15;;;;;;;;;;10416486;28;20032;-88
2021/09/27 05:33:40;;;;;;;6.10;3.05;;;;;;;;;;10431350;28;20086;-85
2021/09/27 05:38:43;;;;;;;5.65;4.00;;;;;;;;;;10417172;28;20021;-85
2021/09/27 05:43:54;;;;;;;4.10;3.67;;;;;;;;;;10416901;28;20130;-85
2021/09/27 05:49:18;;;;;;;5.88;5.38;;;;;;;;;;10417158;28;20029;-84
2021/09/27 05:54:40;;;;;;;7.43;4.75;;;;;;;;;;10413733;28;20045;-84
2021/09/27 05:59:54;;;;;;;6.82;3.60;;;;;;;;;;10415447;28;20079;-82
2021/09/27 06:05:31;;;;;;;3.95;3.30;;;;;;;;;;10431676;28;20034;-85
2021/09/27 06:10:43;;;;;;;10.15;3.45;;;;;;;;;;10401687;28;20125;-82
2021/09/27 06:15:47;;;;;;;17.23;3.72;;;;;;;;;;10414222;28;20037;-83
2021/09/27 06:21:23;;;;;;;8.77;3.33;;;;;;;;;;10414684;28;20036;-83
2021/09/27 06:26:26;;;;;;;8.35;3.42;;;;;;;;;;10414092;28;20080;-84
2021/09/27 06:31:38;;;;;;;4.80;3.35;;;;;;;;;;10430300;28;20056;-82
2021/09/27 06:36:39;;;;;;;8.10;3.30;;;;;;;;;;10414240;28;20026;-82
2021/09/27 06:41:39;;;;;;;6.00;3.35;;;;;;;;;;10430828;28;20418;-84
2021/09/27 06:46:41;;;;;;;7.95;3.35;;;;;;;;;;10415528;28;20137;-84
2021/09/27 06:51:41;;;;;;;6.22;3.08;;;;;;;;;;10415100;28;20464;-84
2021/09/27 06:56:43;;;;;;;6.55;3.33;;;;;;;;;;10415150;28;20029;-84
2021/09/27 07:01:45;;;;;;;8.13;3.30;;;;;;;;;;10415273;28;20029;-84
2021/09/27 07:06:45;;;;;;;19.08;3.85;;;;;;;;;;10414117;28;20025;-84
2021/09/27 07:11:46;;;;;;;5.85;3.42;;;;;;;;;;10429846;28;20029;-84
2021/09/27 07:16:46;;;;;;;8.43;3.08;;;;;;;;;;10414988;28;20025;-84
2021/09/27 07:21:47;;;;;;;10.30;4.03;;;;;;;;;;10415300;28;20033;-83
2021/09/27 07:26:47;;;;;;;6.55;3.38;;;;;;;;;;10414635;28;20976;-85
2021/09/27 07:31:48;;;;;;;5.83;3.30;;;;;;;;;;10414451;28;20035;-84
2021/09/27 07:36:48;;;;;;;6.05;3.28;;;;;;;;;;10413694;28;20457;-84
2021/09/27 07:41:49;;;;;;;6.45;3.08;;;;;;;;;;10417638;23;20068;-84
2021/09/27 07:46:49;;;;;;;10.50;3.40;;;;;;;;;;10372657;28;20038;-84
2021/09/27 07:51:51;;;;;;;5.57;3.10;;;;;;;;;;10372963;28;20813;-83
2021/09/27 07:56:52;;;;;;;13.18;3.13;;;;;;;;;;10374739;28;20033;-83
2021/09/27 08:01:52;;;;;;;9.25;3.38;;;;;;;;;;10367446;28;20108;-83
2021/09/27 08:06:52;;;;;;;9.60;2.60;;;;;;;;;;10378100;28;20109;-83
2021/09/27 08:11:53;;;;;;;7.70;3.10;;;;;;;;;;10379722;28;20034;-83
2021/09/27 08:16:53;;;;;;;7.07;3.00;;;;;;;;;;10379799;28;20053;-83
2021/09/27 08:21:54;;;;;;;9.40;3.30;;;;;;;;;;10378601;28;20026;-82
2021/09/27 08:26:54;;;;;;;4.50;2.87;;;;;;;;;;10374071;28;20025;-82
2021/09/27 08:31:55;;;;;;;5.03;2.80;;;;;;;;;;10370004;28;20855;-83
2021/09/27 08:36:56;;;;;;;5.53;3.15;;;;;;;;;;10378605;28;20032;-83
2021/09/27 08:42:01;;;;;;;5.68;2.47;;;;;;;;;;10354078;28;20026;-83
2021/09/27 08:47:15;;;;;;;5.00;2.80;;;;;;;;;;10350281;28;21098;-84
2021/09/27 08:52:18;;;;;;;4.63;3.53;;;;;;;;;;10352704;28;20023;-83
2021/09/27 08:57:41;;;;;;;4.38;2.55;;;;;;;;;;10340127;28;20512;-83
2021/09/27 09:02:47;;;;;;;5.80;2.67;;;;;;;;;;10342691;28;20026;-84
2021/09/27 09:08:12;;;;;;;4.38;2.50;;;;;;;;;;10361954;28;20944;-84
2021/09/27 09:13:16;;;;;;;7.85;2.72;;;;;;;;;;10362842;28;20080;-84
2021/09/27 09:18:25;;;;;;;5.75;3.03;;;;;;;;;;10376258;28;20030;-84
2021/09/27 09:23:41;;;;;;;3.17;2.50;;;;;;;;;;10372294;28;20038;-85
2021/09/27 09:28:45;;;;;;;4.45;2.53;;;;;;;;;;10361520;28;20110;-84
2021/09/27 09:33:55;;;;;;;3.55;2.85;;;;;;;;;;10373634;28;20042;-85
2021/09/27 09:38:56;;;;;;;4.45;2.50;;;;;;;;;;10374923;28;20053;-85
2021/09/27 09:43:56;;;;;;;7.20;2.70;;;;;;;;;;10375258;28;20111;-85
2021/09/27 09:49:10;;;;;;;2.83;2.50;;;;;;;;;;10375603;28;20025;-85
2021/09/27 09:54:20;;;;;;;3.85;2.50;;;;;;;;;;10370981;28;20468;-85
2021/09/27 09:59:59;;;;;;;4.20;3.22;;;;;;;;;;10339278;28;20057;-83
2021/09/27 10:05:07;;;;;;;2.85;2.65;;;;;;;;;;10337518;28;20145;-85
2021/09/27 10:10:12;;;;;;;4.47;3.00;;;;;;;;;;10367862;28;20034;-83
2021/09/27 10:15:16;;;;;;;3.00;2.58;;;;;;;;;;10376822;28;20040;-85
2021/09/27 10:20:22;;;;;;;4.65;2.50;;;;;;;;;;10372626;28;20483;-85
2021/09/27 10:25:36;;;;;;;2.97;2.40;;;;;;;;;;10374902;28;20038;-85
2021/09/27 10:30:43;;;;;;;4.25;2.15;;;;;;;;;;10361117;28;20113;-85
2021/09/27 10:36:08;;;;;;;5.03;2.93;;;;;;;;;;10373717;28;20034;-85
2021/09/27 10:41:25;;;;;;;4.38;2.80;;;;;;;;;;10347286;28;20105;-85
2021/09/27 10:46:32;;;;;;;5.30;2.50;;;;;;;;;;10373358;28;20873;-84
2021/09/27 10:51:38;;;;;;;3.08;2.40;;;;;;;;;;10373463;28;20030;-84
2021/09/27 10:56:42;;;;;;;4.30;2.70;;;;;;;;;;10374452;28;20169;-84
2021/09/27 11:01:52;;;;;;;4.72;2.60;;;;;;;;;;10362859;28;20035;-84
2021/09/27 11:06:57;;;;;;;5.70;2.60;;;;;;;;;;10371899;28;20022;-84
2021/09/27 11:12:05;;;;;;;5.32;2.50;;;;;;;;;;10356541;28;20109;-84
2021/09/27 11:17:06;;;;;;;2.97;2.58;;;;;;;;;;10373505;28;20395;-84
2021/09/27 11:22:20;;;;;;;5.30;2.70;;;;;;;;;;10373193;28;20037;-85
2021/09/27 11:27:24;;;;;;;5.22;2.90;;;;;;;;;;10374146;28;20041;-88
2021/09/27 11:32:30;;;;;;;5.68;2.83;;;;;;;;;;10372659;28;20042;-83
2021/09/27 11:37:34;;;;;;;4.68;2.95;;;;;;;;;;10376029;28;20133;-85
2021/09/27 11:42:56;;;;;;;4.03;2.42;;;;;;;;;;10373605;28;20054;-84
2021/09/27 11:48:00;;;;;;;15.65;3.15;;;;;;;;;;10379412;28;20040;-84
2021/09/27 11:53:16;;;;;;;3.05;2.70;;;;;;;;;;10365131;28;20037;-83
2021/09/27 11:58:23;;;;;;;11.88;2.95;;;;;;;;;;10350601;28;20032;-83
2021/09/27 12:03:36;;;;;;;7.30;3.07;;;;;;;;;;10363407;28;20026;-84
2021/09/27 12:08:44;;;;;;;7.68;3.15;;;;;;;;;;10370034;28;20351;-84
2021/09/27 12:13:48;;;;;;;5.28;3.10;;;;;;;;;;10352836;28;20035;-84
2021/09/27 12:18:52;;;;;;;4.53;2.85;;;;;;;;;;10370335;28;20041;-84
2021/09/27 12:24:05;;;;;;;3.50;2.60;;;;;;;;;;10374534;28;20060;-84
2021/09/27 12:29:20;;;;;;;5.53;2.72;;;;;;;;;;10379261;28;20037;-84
2021/09/27 12:34:46;;;;;;;7.82;2.72;;;;;;;;;;10363502;28;20065;-80
2021/09/27 12:39:48;;;;;;;7.28;2.70;;;;;;;;;;10378499;28;20040;-80
2021/09/27 12:45:00;;;;;;;4.60;2.70;;;;;;;;;;10378760;28;20061;-84
2021/09/27 12:50:05;;;;;;;3.30;2.55;;;;;;;;;;10365081;28;20068;-84
2021/09/27 12:55:10;;;;;;;4.55;2.63;;;;;;;;;;10377481;28;20041;-84
2021/09/27 13:00:17;;;;;;;8.73;2.60;;;;;;;;;;10365738;28;20076;-83
2021/09/27 13:05:26;;;;;;;3.58;2.75;;;;;;;;;;10335227;28;20027;-83
2021/09/27 13:10:46;;;;;;;5.68;2.33;;;;;;;;;;10337743;28;20036;-83
2021/09/27 13:15:55;;;;;;;;;;;;;;;;;;10336549;28;20030;-83
2021/09/27 13:20:59;;;;;;;4.60;2.53;;;;;;;;;;10335257;28;20311;-84
2021/09/27 13:26:04;;;;;;;6.95;2.63;;;;;;;;;;10335751;28;20038;-80
2021/09/27 13:31:07;;;;;;;11.55;5.15;;;;;;;;;;10335376;28;20380;-82
2021/09/27 13:36:30;;;;;;;12.80;4.70;;;;;;;;;;10335035;28;20034;-81
2021/09/27 13:41:55;;;;;;;23.35;5.80;;;;;;;;;;10324045;28;20053;-85
2021/09/27 13:46:55;;;;;;;27.67;9.65;;;;;;;;;;10344579;28;20050;-85
2021/09/27 13:51:56;;;;;;;23.50;10.40;;;;;;;;;;10335145;28;20554;-85
2021/09/27 13:56:57;;;;;;;34.30;14.20;;;;;;;;;;10334257;28;20045;-86
2021/09/27 14:01:57;;;;;;;33.28;15.10;;;;;;;;;;10333100;28;20097;-84
2021/09/27 14:06:57;;;;;;;31.33;14.50;;;;;;;;;;10343160;28;20022;-85
2021/09/27 14:11:58;;;;;;;32.37;14.40;;;;;;;;;;10364821;28;20054;-85
2021/09/27 14:16:58;;;;;;;35.30;14.13;;;;;;;;;;10346060;28;20040;-85
2021/09/27 14:22:00;;;;;;;29.73;14.60;;;;;;;;;;10353620;28;20153;-85
2021/09/27 14:27:01;;;;;;;39.60;14.95;;;;;;;;;;10354273;28;20065;-87
2021/09/27 14:32:03;;;;;;;31.33;14.10;;;;;;;;;;10359596;28;20025;-85
2021/09/27 14:37:03;;;;;;;33.92;14.82;;;;;;;;;;10349320;28;20032;-86
2021/09/27 14:42:04;;;;;;;29.33;13.20;;;;;;;;;;10332925;28;20117;-86
2021/09/27 14:47:04;;;;;;;28.50;13.05;;;;;;;;;;10330799;28;20520;-87
2021/09/27 14:52:05;;;;;;;28.53;12.63;;;;;;;;;;10332339;28;20384;-87
2021/09/27 14:57:06;;;;;;;29.88;12.23;;;;;;;;;;10333571;28;20038;-86
2021/09/27 15:02:06;;;;;;;23.87;11.50;;;;;;;;;;10341643;28;20033;-86
2021/09/27 15:07:07;;;;;;;20.02;9.85;;;;;;;;;;10342843;28;20464;-86
2021/09/27 15:12:08;;;;;;;18.98;9.82;;;;;;;;;;10371160;28;20022;-87
2021/09/27 15:17:08;;;;;;;20.35;9.77;;;;;;;;;;10380288;28;20036;-87
2021/09/27 15:22:10;;;;;;;19.50;9.33;;;;;;;;;;10375674;28;20038;-87
2021/09/27 15:27:11;;;;;;;21.10;9.25;;;;;;;;;;10380454;28;20460;-87
2021/09/27 15:32:13;;;;;;;19.90;8.97;;;;;;;;;;10358187;28;20029;-88
2021/09/27 15:37:17;;;;;;;18.02;8.98;;;;;;;;;;10380947;28;20482;-88
2021/09/27 15:42:19;;;;;;;14.70;7.70;;;;;;;;;;10373858;28;20018;-87
2021/09/27 15:47:19;;;;;;;16.92;7.80;;;;;;;;;;10352660;28;20116;-88
2021/09/27 15:52:21;;;;;;;19.27;8.43;;;;;;;;;;10357754;28;20105;-88
2021/09/27 15:57:21;;;;;;;18.40;8.50;;;;;;;;;;10357709;28;20113;-88
2021/09/27 16:02:21;;;;;;;13.25;6.80;;;;;;;;;;10365840;28;20108;-88
2021/09/27 16:07:22;;;;;;;15.53;6.90;;;;;;;;;;10337311;28;20040;-88
2021/09/27 16:12:22;;;;;;;13.03;7.07;;;;;;;;;;10371037;28;20455;-87
2021/09/27 16:17:23;;;;;;;12.50;6.40;;;;;;;;;;10353326;28;20467;-88
2021/09/27 16:22:24;;;;;;;14.07;6.70;;;;;;;;;;10363286;28;20382;-88
2021/09/27 16:27:25;;;;;;;15.48;6.20;;;;;;;;;;10364937;28;20472;-88
2021/09/27 16:32:25;;;;;;;15.23;6.13;;;;;;;;;;10327961;28;20555;-90
2021/09/27 16:37:26;;;;;;;14.27;6.03;;;;;;;;;;10361197;28;20056;-88
2021/09/27 16:42:26;;;;;;;12.80;6.13;;;;;;;;;;10376415;28;20050;-89
2021/09/27 16:47:28;;;;;;;13.60;5.50;;;;;;;;;;10372325;28;20026;-87
2021/09/27 16:52:28;;;;;;;16.25;5.82;;;;;;;;;;10344753;28;20034;-88
2021/09/27 16:57:28;;;;;;;13.87;6.07;;;;;;;;;;10377053;28;20100;-88
2021/09/27 17:02:29;;;;;;;10.83;5.63;;;;;;;;;;10377242;28;20428;-88
2021/09/27 17:07:30;;;;;;;12.57;6.05;;;;;;;;;;10357666;28;20042;-88
2021/09/27 17:12:31;;;;;;;10.43;5.32;;;;;;;;;;10357480;28;20400;-88
2021/09/27 17:22:58;;;;;;;9.85;5.63;;;;;;;;;;10335794;28;20117;-89
2021/09/27 17:28:02;;;;;;;12.60;5.28;;;;;;;;;;10314999;28;20034;-88
2021/09/27 17:33:04;;;;;;;10.38;5.20;;;;;;;;;;10342563;28;20114;-88
2021/09/27 17:38:05;;;;;;;10.20;5.32;;;;;;;;;;10317952;28;20081;-89
2021/09/27 17:43:06;;;;;;;6.20;4.80;;;;;;;;;;10341258;28;20054;-88
2021/09/27 17:48:07;;;;;;;8.37;5.13;;;;;;;;;;10334060;28;20119;-88
2021/09/27 17:53:10;;;;;;;7.80;5.32;;;;;;;;;;10333893;28;20811;-88
2021/09/27 17:58:11;;;;;;;8.50;4.88;;;;;;;;;;10335259;28;20038;-91
2021/09/27 18:03:12;;;;;;;11.02;5.43;;;;;;;;;;10328948;28;20483;-91
2021/09/27 18:08:12;;;;;;;9.05;5.28;;;;;;;;;;10348472;28;20542;-92
2021/09/27 18:13:13;;;;;;;10.60;5.55;;;;;;;;;;10371027;28;20116;-88
2021/09/27 18:18:15;;;;;;;23.02;6.68;;;;;;;;;;10350875;28;20026;-91
2021/09/27 18:23:16;;;;;;;18.25;6.50;;;;;;;;;;10347563;28;20029;-91
2021/09/27 18:28:17;;;;;;;14.77;5.50;;;;;;;;;;10361332;28;20392;-90
2021/09/27 18:33:17;;;;;;;16.53;6.07;;;;;;;;;;10344059;28;20034;-91
2021/09/27 18:38:19;;;;;;;13.30;5.43;;;;;;;;;;10326699;28;20034;-91
2021/09/27 18:43:19;;;;;;;12.48;5.53;;;;;;;;;;10314428;28;20074;-91
2021/09/27 18:48:20;;;;;;;11.32;5.40;;;;;;;;;;10343611;28;20057;-91
2021/09/27 18:53:21;;;;;;;16.05;5.63;;;;;;;;;;10333068;28;20034;-91
2021/09/27 18:58:21;;;;;;;11.70;5.32;;;;;;;;;;10331810;28;20089;-91
2021/09/27 19:03:22;;;;;;;9.47;5.03;;;;;;;;;;10330424;28;20483;-91
2021/09/27 19:08:22;;;;;;;11.63;4.93;;;;;;;;;;10330855;28;20031;-91
2021/09/27 19:13:22;;;;;;;9.77;5.17;;;;;;;;;;10330654;28;20113;-90
2021/09/27 19:18:25;;;;;;;6.47;4.20;;;;;;;;;;10330428;28;20027;-91
2021/09/27 19:23:27;;;;;;;12.40;5.05;;;;;;;;;;10330017;28;20499;-91
2021/09/27 19:28:30;;;;;;;11.57;4.55;;;;;;;;;;10329696;28;20083;-92
2021/09/27 19:33:32;;;;;;;9.68;5.13;;;;;;;;;;10327626;28;20049;-91
2021/09/27 19:38:32;;;;;;;11.50;4.70;;;;;;;;;;10330521;28;20057;-91
2021/09/27 19:43:34;;;;;;;9.75;4.85;;;;;;;;;;10353440;23;20050;-91
2021/09/27 19:48:35;;;;;;;12.25;5.22;;;;;;;;;;10371577;28;20075;-92
2021/09/27 19:53:35;;;;;;;11.63;4.72;;;;;;;;;;10358274;28;20049;-90
2021/09/27 19:58:37;;;;;;;9.30;5.10;;;;;;;;;;10379905;28;20041;-89
2021/09/27 20:03:38;;;;;;;13.25;5.05;;;;;;;;;;10374401;28;20116;-90
2021/09/27 20:08:40;;;;;;;12.33;5.60;;;;;;;;;;10378055;28;20124;-90
2021/09/27 20:13:41;;;;;;;12.88;5.22;;;;;;;;;;10379131;28;20429;-89
2021/09/27 20:18:42;;;;;;;14.77;4.85;;;;;;;;;;10377676;28;20112;-90
2021/09/27 20:23:43;;;;;;;20.75;5.68;;;;;;;;;;10377815;28;20026;-88
2021/09/27 20:28:43;;;;;;;11.47;5.70;;;;;;;;;;10377553;28;20120;-90
2021/09/27 20:33:45;;;;;;;20.73;6.90;;;;;;;;;;10360822;28;20028;-89
2021/09/27 20:38:47;;;;;;;21.77;7.30;;;;;;;;;;10368538;28;20472;-89
2021/09/27 20:43:47;;;;;;;21.80;6.13;;;;;;;;;;10377622;28;20487;-89
2021/09/27 20:48:48;;;;;;;19.48;6.57;;;;;;;;;;10376010;28;20036;-90
2021/09/27 20:53:48;;;;;;;17.92;6.03;;;;;;;;;;10375786;28;20065;-90
2021/09/27 20:58:49;;;;;;;13.90;5.78;;;;;;;;;;10376802;28;20054;-90
2021/09/27 21:03:49;;;;;;;12.47;5.87;;;;;;;;;;10376960;28;20026;-90
2021/09/27 21:08:52;;;;;;;18.90;5.37;;;;;;;;;;10358325;28;20026;-90
2021/09/27 21:13:52;;;;;;;15.40;5.63;;;;;;;;;;10375754;28;20048;-90
2021/09/27 21:18:53;;;;;;;14.93;5.85;;;;;;;;;;10376581;28;20026;-89
2021/09/27 21:23:53;;;;;;;10.30;5.80;;;;;;;;;;10376154;28;20118;-89
2021/09/27 21:28:54;;;;;;;11.52;5.60;;;;;;;;;;10375786;28;20367;-89
2021/09/27 21:33:54;;;;;;;10.43;5.63;;;;;;;;;;10374162;28;20369;-89
2021/09/27 21:38:54;;;;;;;9.63;5.23;;;;;;;;;;10375732;28;20100;-89
2021/09/27 21:43:55;;;;;;;10.87;5.43;;;;;;;;;;10376329;28;20493;-89
2021/09/27 21:48:55;;;;;;;7.20;4.70;;;;;;;;;;10376180;28;20022;-89
2021/09/27 21:53:55;;;;;;;12.77;5.33;;;;;;;;;;10375150;28;20431;-89
2021/09/27 21:58:56;;;;;;;9.43;4.77;;;;;;;;;;10374745;28;20116;-89
2021/09/27 22:03:56;;;;;;;13.03;5.30;;;;;;;;;;10376069;28;20025;-89
2021/09/27 22:08:58;;;;;;;7.45;5.13;;;;;;;;;;10375362;28;20446;-89
2021/09/27 22:13:59;;;;;;;8.57;5.28;;;;;;;;;;10374160;28;20061;-89
2021/09/27 22:18:59;;;;;;;9.50;5.13;;;;;;;;;;10374734;28;20057;-88
2021/09/27 22:24:02;;;;;;;8.17;4.70;;;;;;;;;;10375217;28;20026;-90
2021/09/27 22:29:02;;;;;;;9.27;5.10;;;;;;;;;;10373605;28;20440;-86
2021/09/27 22:34:03;;;;;;;16.92;5.38;;;;;;;;;;10374212;28;20121;-86
